Portada
METAR-TAF:

METAR-TAF

Aeroports :

Gove Peninsula, Austràlia

latitud: 12-16-12S, longitud: 136-49-06E, altitud: 62 m

Observació

L'informe es va fer fa 49 minuts, a les 22:00 UTC
Vent 8 kt del Nord-Oest
Temperatura 30°C
Humitat 70%
Pressió 1008 hPa
Visibilitat 10 km o més

METAR: YPGV 112200Z AUTO 32008KT 9999 // NCD 30/24 Q1008

Hora: 08:19 (22:49 UTC)

Pronòstic

L'informe es va fer fa 3 hores i 32 minuts, a les 19:17 UTC
Pronòstic vàlid del 11 a les 19 UTC al 12 a les 08 UTC
Vent 5 kt del Nord-Oest
Visibilitat 10 km o més
Escasses núvols a una alçada de 1200 ft
A partir de les 11 a les 2300 UTC
Vent 10 kt del Nord/Nord-Est
Visibilitat 10 km o més
Escasses núvols a una alçada de 2000 ft

TAF: YPGV 111917Z 1119/1208 31005KT 9999 FEW012 FM112300 02010KT 9999 FEW020

Observacions i pronòstics meteorològics de més de 4000 aeroports (METAR i TAF).

Les estacions disponibles són els punts grocs i vermells al mapa.

Posi el ratolí al punt desitjat per veure el nom de l'estació.

Feu clic per veure les observacions i els pronòstics meteorològics.

Per canviar el mapa: feu clic els botons verds amb una creu de color negre per apropar; al botó verd amb un guió per allunyar la imatge; o en les fletxes verdes per a mapes adjacents.


METAR-TAF: